RJSNRJSC

Guest
Details From RJSN - NIIGATA
To RJSC - YAMAGATA
Flight Number -
Tags generated
Created
Modified
Stats Distance 65 nm / 121 km
Max Altitude 0 ft / 0 m
Waypoints 3
Social Downloads 1
Likes 0
Share VATSIM

Download

Looking for another format? Having issues loading an existing format? Contact us
Advertisement - Login to hide

Notes

Basic altitude profile: - Ascent Rate: 2500ft/min - Ascent Speed: 250kts - Cruise Altitude: 35000ft - Cruise Speed: 420kts - Descent Rate: 1500ft/min - Descent Speed: 250kts Options: - Use NATs: yes - Use PACOTS: yes - Use low airways: yes - Use high airways: yes

Route

RJSN GTC RJSC

ID Type Via Altitude Latitude Longitude Leg Dist Tot Dist Heading (true) Name
O RJSN APT - 0 ft / 0 m 37.95480˚ 139.11423˚ - 0 nm - NIIGATA
GTC VOR - 0 ft / 0 m 37.95829˚ 139.11489˚ 0 nm 0 nm 8° / 8° NIIGATA VORTAC
O RJSC APT - 0 ft / 0 m 38.41190˚ 140.37133˚ 65 nm 65 nm 65° / 66° YAMAGATA

Altitude Profile

Advertisement - Login to hide

RJSN

Details ICAO RJSN (KIJ)
Name NIIGATA
Region Japan
Timezone Asia/Tokyo (UTC+9.0)
Stats Elevation 29 ft / 9 m (AMSL)
Location 37.954803° 139.114228°
Runways 2
Magnetic Variation 8.302° W

METAR

RJSN 161102Z 27018G28KT 8000 -SHRA FEW010 BKN020 BKN030 07/04 Q1008 RMK 1CU010 5CU020 6CU030 A2979

Decode

TAF

TAF AMD RJSN 160802Z 1608/1712 30012KT 6000 -SHRA FEW008 BKN015 TEMPO 1608/1610 3500 TSRA BR FEW005 BKN008 FEW015CB TEMPO 1610/1616 3000 SHRA BR BECMG 1614/1616 30022KT TEMPO 1616/1621 33034G46KT 2000 -SHSNGS FEW005 BKN008 FEW015CB TEMPO 1706/1712 3500 -SHSN

Decode

Departure Runways

ID Width Length Bearing (true) Bearing (mag) Surface Threshold Offset Overrun Length
04 150 ft / 46 m 4,321 ft / 1,317 m 31.80° 40.10° Asphalt 0 ft / 0 m 200 ft / 61 m
10 150 ft / 46 m 8,185 ft / 2,495 m 92.69° 100.99° Asphalt 0 ft / 0 m 200 ft / 61 m
22 150 ft / 46 m 4,321 ft / 1,317 m 211.80° 220.10° Asphalt 0 ft / 0 m 200 ft / 61 m
28 150 ft / 46 m 8,185 ft / 2,495 m 272.70° 281.00° Asphalt 0 ft / 0 m 200 ft / 61 m

RJSC

Details ICAO RJSC (GAJ)
Name YAMAGATA
Region Japan
Timezone Asia/Tokyo (UTC+9.0)
Stats Elevation 353 ft / 108 m (AMSL)
Location 38.411895° 140.371330°
Runways 1
Magnetic Variation 8.259° W

METAR

RJSC 161000Z 19003KT 5000 -SHRA BR FEW003 SCT009 BKN010 01/01 Q1008

Decode

TAF

Not found

Destination Runways

ID Width Length Bearing (true) Bearing (mag) Surface Threshold Offset Overrun Length
01 150 ft / 46 m 6,574 ft / 2,004 m 6.56° 14.82° Asphalt 0 ft / 0 m 200 ft / 61 m
19 150 ft / 46 m 6,574 ft / 2,004 m 186.56° 194.82° Asphalt 0 ft / 0 m 200 ft / 61 m

Approach Navaids

Runway Type Ident Frequency Range Bearing (true) Bearing (mag) Slope Elevation
01 Localiser IYT 110.10 MHz 18 nm / 33 km 6.56° 14.82° - 353 ft / 108 m (AMSL)
01 Glidescope IYT 110.10 MHz 10 nm / 19 km 6.56° 14.82° 3.00° 362 ft / 110 m (AMSL)
01 DME IYT 110.10 MHz 18 nm / 33 km - - - 362 ft / 110 m (AMSL)

Popular Alternatives